sensor_id;sensor_type;location;lat;lon;timestamp;P1;durP1;ratioP1;P2;durP2;ratioP2
74799;SDS011;63326;45.088;7.658;2023-12-20T00:00:26;10.88;;;4.88;;
74799;SDS011;63326;45.088;7.658;2023-12-20T00:02:53;9.65;;;4.95;;
74799;SDS011;63326;45.088;7.658;2023-12-20T00:05:19;12.13;;;5.28;;
74799;SDS011;63326;45.088;7.658;2023-12-20T00:07:46;8.40;;;4.80;;
74799;SDS011;63326;45.088;7.658;2023-12-20T00:10:13;9.38;;;5.20;;
74799;SDS011;63326;45.088;7.658;2023-12-20T00:12:40;6.95;;;4.72;;
74799;SDS011;63326;45.088;7.658;2023-12-20T00:15:07;10.38;;;6.10;;
74799;SDS011;63326;45.088;7.658;2023-12-20T00:17:34;5.63;;;4.00;;
74799;SDS011;63326;45.088;7.658;2023-12-20T00:20:01;9.75;;;4.90;;
74799;SDS011;63326;45.088;7.658;2023-12-20T00:22:28;8.77;;;4.80;;
74799;SDS011;63326;45.088;7.658;2023-12-20T00:24:54;6.07;;;3.83;;
74799;SDS011;63326;45.088;7.658;2023-12-20T00:27:21;8.73;;;4.80;;
74799;SDS011;63326;45.088;7.658;2023-12-20T00:29:48;9.98;;;5.55;;
74799;SDS011;63326;45.088;7.658;2023-12-20T00:32:16;13.45;;;5.50;;
74799;SDS011;63326;45.088;7.658;2023-12-20T00:34:43;11.27;;;5.90;;
74799;SDS011;63326;45.088;7.658;2023-12-20T00:37:10;8.57;;;5.93;;
74799;SDS011;63326;45.088;7.658;2023-12-20T00:39:37;7.90;;;4.63;;
74799;SDS011;63326;45.088;7.658;2023-12-20T00:42:03;9.32;;;5.53;;
74799;SDS011;63326;45.088;7.658;2023-12-20T00:44:30;12.20;;;5.40;;
74799;SDS011;63326;45.088;7.658;2023-12-20T00:46:57;9.18;;;4.47;;
74799;SDS011;63326;45.088;7.658;2023-12-20T00:49:24;9.20;;;5.07;;
74799;SDS011;63326;45.088;7.658;2023-12-20T00:51:50;8.25;;;5.15;;
74799;SDS011;63326;45.088;7.658;2023-12-20T00:56:45;9.55;;;4.85;;
74799;SDS011;63326;45.088;7.658;2023-12-20T00:59:12;10.75;;;5.15;;
74799;SDS011;63326;45.088;7.658;2023-12-20T01:01:38;12.15;;;4.28;;
74799;SDS011;63326;45.088;7.658;2023-12-20T01:04:05;7.07;;;3.97;;
74799;SDS011;63326;45.088;7.658;2023-12-20T01:06:32;8.50;;;5.30;;
74799;SDS011;63326;45.088;7.658;2023-12-20T01:08:58;9.07;;;4.50;;
74799;SDS011;63326;45.088;7.658;2023-12-20T01:11:25;7.72;;;5.22;;
74799;SDS011;63326;45.088;7.658;2023-12-20T01:13:52;7.30;;;4.28;;
74799;SDS011;63326;45.088;7.658;2023-12-20T01:16:18;8.45;;;5.82;;
74799;SDS011;63326;45.088;7.658;2023-12-20T01:18:45;10.27;;;6.25;;
74799;SDS011;63326;45.088;7.658;2023-12-20T01:21:12;9.02;;;5.20;;
74799;SDS011;63326;45.088;7.658;2023-12-20T01:23:38;9.80;;;5.15;;
74799;SDS011;63326;45.088;7.658;2023-12-20T01:26:05;14.15;;;5.85;;
74799;SDS011;63326;45.088;7.658;2023-12-20T01:28:32;7.38;;;4.70;;
74799;SDS011;63326;45.088;7.658;2023-12-20T01:30:58;6.47;;;4.38;;
74799;SDS011;63326;45.088;7.658;2023-12-20T01:33:25;10.73;;;5.65;;
74799;SDS011;63326;45.088;7.658;2023-12-20T01:35:52;10.40;;;5.55;;
74799;SDS011;63326;45.088;7.658;2023-12-20T01:38:18;8.77;;;4.13;;
74799;SDS011;63326;45.088;7.658;2023-12-20T01:40:46;7.20;;;4.70;;
74799;SDS011;63326;45.088;7.658;2023-12-20T01:43:13;10.25;;;5.13;;
74799;SDS011;63326;45.088;7.658;2023-12-20T01:45:40;10.43;;;4.85;;
74799;SDS011;63326;45.088;7.658;2023-12-20T01:48:07;12.88;;;5.00;;
74799;SDS011;63326;45.088;7.658;2023-12-20T01:50:36;10.55;;;5.05;;
74799;SDS011;63326;45.088;7.658;2023-12-20T01:53:04;5.38;;;4.20;;
74799;SDS011;63326;45.088;7.658;2023-12-20T01:55:34;9.88;;;4.60;;
74799;SDS011;63326;45.088;7.658;2023-12-20T01:58:02;6.60;;;3.85;;
74799;SDS011;63326;45.088;7.658;2023-12-20T02:02:57;7.22;;;5.05;;
74799;SDS011;63326;45.088;7.658;2023-12-20T02:05:29;6.97;;;4.20;;
74799;SDS011;63326;45.088;7.658;2023-12-20T02:07:56;17.33;;;5.70;;
74799;SDS011;63326;45.088;7.658;2023-12-20T02:10:23;6.88;;;4.35;;
74799;SDS011;63326;45.088;7.658;2023-12-20T02:12:50;8.13;;;4.80;;
74799;SDS011;63326;45.088;7.658;2023-12-20T02:15:17;7.38;;;4.20;;
74799;SDS011;63326;45.088;7.658;2023-12-20T02:17:44;8.88;;;4.88;;
74799;SDS011;63326;45.088;7.658;2023-12-20T02:20:13;8.00;;;4.72;;
74799;SDS011;63326;45.088;7.658;2023-12-20T02:22:39;11.27;;;5.78;;
74799;SDS011;63326;45.088;7.658;2023-12-20T02:25:06;6.18;;;4.13;;
74799;SDS011;63326;45.088;7.658;2023-12-20T02:27:34;10.32;;;5.03;;
74799;SDS011;63326;45.088;7.658;2023-12-20T02:30:01;11.35;;;5.10;;
74799;SDS011;63326;45.088;7.658;2023-12-20T02:32:27;11.93;;;5.70;;
74799;SDS011;63326;45.088;7.658;2023-12-20T02:34:55;6.43;;;4.57;;
74799;SDS011;63326;45.088;7.658;2023-12-20T02:37:23;7.85;;;4.80;;
74799;SDS011;63326;45.088;7.658;2023-12-20T02:39:50;9.32;;;5.38;;
74799;SDS011;63326;45.088;7.658;2023-12-20T02:42:16;9.00;;;3.55;;
74799;SDS011;63326;45.088;7.658;2023-12-20T02:44:43;7.28;;;5.22;;
74799;SDS011;63326;45.088;7.658;2023-12-20T02:47:10;9.07;;;5.40;;
74799;SDS011;63326;45.088;7.658;2023-12-20T02:49:36;6.95;;;4.68;;
74799;SDS011;63326;45.088;7.658;2023-12-20T02:52:03;6.90;;;4.63;;
74799;SDS011;63326;45.088;7.658;2023-12-20T02:54:30;10.73;;;4.40;;
74799;SDS011;63326;45.088;7.658;2023-12-20T02:56:57;10.85;;;5.38;;
74799;SDS011;63326;45.088;7.658;2023-12-20T02:59:24;7.53;;;4.20;;
74799;SDS011;63326;45.088;7.658;2023-12-20T03:01:50;8.40;;;5.85;;
74799;SDS011;63326;45.088;7.658;2023-12-20T03:04:17;8.27;;;3.90;;
74799;SDS011;63326;45.088;7.658;2023-12-20T03:06:44;12.70;;;5.95;;
74799;SDS011;63326;45.088;7.658;2023-12-20T03:09:10;11.95;;;5.18;;
74799;SDS011;63326;45.088;7.658;2023-12-20T03:11:37;6.55;;;4.28;;
74799;SDS011;63326;45.088;7.658;2023-12-20T03:14:04;7.80;;;4.68;;
74799;SDS011;63326;45.088;7.658;2023-12-20T03:16:30;12.63;;;4.47;;
74799;SDS011;63326;45.088;7.658;2023-12-20T03:19:02;7.68;;;4.25;;
74799;SDS011;63326;45.088;7.658;2023-12-20T03:21:28;9.43;;;4.28;;
74799;SDS011;63326;45.088;7.658;2023-12-20T03:23:55;5.75;;;4.32;;
74799;SDS011;63326;45.088;7.658;2023-12-20T03:26:22;11.38;;;5.30;;
74799;SDS011;63326;45.088;7.658;2023-12-20T03:28:49;9.95;;;5.00;;
74799;SDS011;63326;45.088;7.658;2023-12-20T03:31:16;11.10;;;5.40;;
74799;SDS011;63326;45.088;7.658;2023-12-20T03:33:42;9.48;;;5.03;;
74799;SDS011;63326;45.088;7.658;2023-12-20T03:36:09;8.68;;;5.10;;
74799;SDS011;63326;45.088;7.658;2023-12-20T03:38:36;11.55;;;5.35;;
74799;SDS011;63326;45.088;7.658;2023-12-20T03:41:02;10.05;;;5.07;;
74799;SDS011;63326;45.088;7.658;2023-12-20T03:43:29;7.13;;;4.32;;
74799;SDS011;63326;45.088;7.658;2023-12-20T03:45:56;5.80;;;3.75;;
74799;SDS011;63326;45.088;7.658;2023-12-20T03:48:22;7.28;;;4.03;;
74799;SDS011;63326;45.088;7.658;2023-12-20T03:50:49;5.45;;;3.42;;
74799;SDS011;63326;45.088;7.658;2023-12-20T03:53:15;7.75;;;4.45;;
74799;SDS011;63326;45.088;7.658;2023-12-20T03:55:42;8.93;;;4.80;;
74799;SDS011;63326;45.088;7.658;2023-12-20T03:58:09;6.63;;;3.30;;
74799;SDS011;63326;45.088;7.658;2023-12-20T04:00:35;5.05;;;3.45;;
74799;SDS011;63326;45.088;7.658;2023-12-20T04:03:02;7.72;;;4.10;;
74799;SDS011;63326;45.088;7.658;2023-12-20T04:05:29;8.07;;;5.10;;
74799;SDS011;63326;45.088;7.658;2023-12-20T04:07:56;8.50;;;4.32;;
74799;SDS011;63326;45.088;7.658;2023-12-20T04:10:23;8.68;;;3.72;;
74799;SDS011;63326;45.088;7.658;2023-12-20T04:12:49;6.25;;;4.80;;
74799;SDS011;63326;45.088;7.658;2023-12-20T04:15:16;6.28;;;4.20;;
74799;SDS011;63326;45.088;7.658;2023-12-20T04:17:43;9.13;;;4.97;;
74799;SDS011;63326;45.088;7.658;2023-12-20T04:20:10;9.55;;;4.75;;
74799;SDS011;63326;45.088;7.658;2023-12-20T04:22:37;8.00;;;4.07;;
74799;SDS011;63326;45.088;7.658;2023-12-20T04:25:03;12.88;;;6.28;;
74799;SDS011;63326;45.088;7.658;2023-12-20T04:27:30;10.05;;;5.75;;
74799;SDS011;63326;45.088;7.658;2023-12-20T04:29:57;11.38;;;5.18;;
74799;SDS011;63326;45.088;7.658;2023-12-20T04:32:24;8.63;;;5.30;;
74799;SDS011;63326;45.088;7.658;2023-12-20T04:34:50;10.95;;;6.68;;
74799;SDS011;63326;45.088;7.658;2023-12-20T04:37:17;8.27;;;6.20;;
74799;SDS011;63326;45.088;7.658;2023-12-20T04:39:44;13.02;;;6.22;;
74799;SDS011;63326;45.088;7.658;2023-12-20T04:42:10;9.88;;;6.35;;
74799;SDS011;63326;45.088;7.658;2023-12-20T04:44:37;11.25;;;6.55;;
74799;SDS011;63326;45.088;7.658;2023-12-20T04:47:04;8.70;;;6.00;;
74799;SDS011;63326;45.088;7.658;2023-12-20T04:49:31;12.13;;;6.32;;
74799;SDS011;63326;45.088;7.658;2023-12-20T04:51:57;11.55;;;5.82;;
74799;SDS011;63326;45.088;7.658;2023-12-20T04:54:24;13.40;;;7.13;;
74799;SDS011;63326;45.088;7.658;2023-12-20T04:56:51;14.73;;;7.53;;
74799;SDS011;63326;45.088;7.658;2023-12-20T04:59:17;11.73;;;6.35;;
74799;SDS011;63326;45.088;7.658;2023-12-20T05:01:44;10.55;;;6.20;;
74799;SDS011;63326;45.088;7.658;2023-12-20T05:04:11;9.88;;;4.45;;
74799;SDS011;63326;45.088;7.658;2023-12-20T05:06:37;12.43;;;7.68;;
74799;SDS011;63326;45.088;7.658;2023-12-20T05:09:04;7.93;;;6.07;;
74799;SDS011;63326;45.088;7.658;2023-12-20T05:11:31;13.50;;;6.30;;
74799;SDS011;63326;45.088;7.658;2023-12-20T05:13:57;9.07;;;5.32;;
74799;SDS011;63326;45.088;7.658;2023-12-20T05:16:24;11.00;;;5.47;;
74799;SDS011;63326;45.088;7.658;2023-12-20T05:18:51;10.95;;;7.28;;
74799;SDS011;63326;45.088;7.658;2023-12-20T05:21:18;13.18;;;6.05;;
74799;SDS011;63326;45.088;7.658;2023-12-20T05:23:45;13.15;;;7.32;;
74799;SDS011;63326;45.088;7.658;2023-12-20T05:26:12;10.10;;;7.10;;
74799;SDS011;63326;45.088;7.658;2023-12-20T05:28:39;9.73;;;5.10;;
74799;SDS011;63326;45.088;7.658;2023-12-20T05:31:05;11.18;;;6.28;;
74799;SDS011;63326;45.088;7.658;2023-12-20T05:33:33;14.75;;;8.10;;
74799;SDS011;63326;45.088;7.658;2023-12-20T05:36:00;16.20;;;6.85;;
74799;SDS011;63326;45.088;7.658;2023-12-20T05:38:26;12.27;;;6.45;;
74799;SDS011;63326;45.088;7.658;2023-12-20T05:40:53;10.70;;;5.93;;
74799;SDS011;63326;45.088;7.658;2023-12-20T05:43:20;10.02;;;6.55;;
74799;SDS011;63326;45.088;7.658;2023-12-20T05:45:46;10.00;;;6.13;;
74799;SDS011;63326;45.088;7.658;2023-12-20T05:48:13;13.13;;;6.93;;
74799;SDS011;63326;45.088;7.658;2023-12-20T05:50:40;10.07;;;7.50;;
74799;SDS011;63326;45.088;7.658;2023-12-20T05:53:07;11.20;;;6.22;;
74799;SDS011;63326;45.088;7.658;2023-12-20T05:55:34;10.30;;;6.18;;
74799;SDS011;63326;45.088;7.658;2023-12-20T05:58:00;14.13;;;6.90;;
74799;SDS011;63326;45.088;7.658;2023-12-20T06:00:27;12.45;;;6.90;;
74799;SDS011;63326;45.088;7.658;2023-12-20T06:02:54;11.32;;;5.53;;
74799;SDS011;63326;45.088;7.658;2023-12-20T06:05:21;11.05;;;6.10;;
74799;SDS011;63326;45.088;7.658;2023-12-20T06:07:48;10.65;;;7.03;;
74799;SDS011;63326;45.088;7.658;2023-12-20T06:10:17;14.40;;;6.47;;
74799;SDS011;63326;45.088;7.658;2023-12-20T06:12:43;14.85;;;7.78;;
74799;SDS011;63326;45.088;7.658;2023-12-20T06:15:11;12.32;;;5.75;;
74799;SDS011;63326;45.088;7.658;2023-12-20T06:17:38;14.93;;;6.05;;
74799;SDS011;63326;45.088;7.658;2023-12-20T06:20:06;13.07;;;7.10;;
74799;SDS011;63326;45.088;7.658;2023-12-20T06:22:35;11.90;;;6.78;;
74799;SDS011;63326;45.088;7.658;2023-12-20T06:25:02;10.45;;;6.03;;
74799;SDS011;63326;45.088;7.658;2023-12-20T06:27:29;12.18;;;6.00;;
74799;SDS011;63326;45.088;7.658;2023-12-20T06:29:56;12.95;;;5.82;;
74799;SDS011;63326;45.088;7.658;2023-12-20T06:32:22;15.27;;;7.65;;
74799;SDS011;63326;45.088;7.658;2023-12-20T06:34:49;9.10;;;5.43;;
74799;SDS011;63326;45.088;7.658;2023-12-20T06:37:16;12.50;;;7.10;;
74799;SDS011;63326;45.088;7.658;2023-12-20T06:39:43;12.30;;;6.38;;
74799;SDS011;63326;45.088;7.658;2023-12-20T06:42:09;13.52;;;7.20;;
74799;SDS011;63326;45.088;7.658;2023-12-20T06:44:36;9.68;;;6.43;;
74799;SDS011;63326;45.088;7.658;2023-12-20T06:47:03;13.35;;;7.65;;
74799;SDS011;63326;45.088;7.658;2023-12-20T06:49:30;15.68;;;7.32;;
74799;SDS011;63326;45.088;7.658;2023-12-20T06:51:57;12.85;;;7.93;;
74799;SDS011;63326;45.088;7.658;2023-12-20T06:54:23;12.13;;;8.15;;
74799;SDS011;63326;45.088;7.658;2023-12-20T06:56:50;13.40;;;7.95;;
74799;SDS011;63326;45.088;7.658;2023-12-20T06:59:17;11.95;;;7.22;;
74799;SDS011;63326;45.088;7.658;2023-12-20T07:01:47;12.68;;;7.03;;
74799;SDS011;63326;45.088;7.658;2023-12-20T07:04:15;14.32;;;10.40;;
74799;SDS011;63326;45.088;7.658;2023-12-20T07:06:43;11.52;;;7.18;;
74799;SDS011;63326;45.088;7.658;2023-12-20T07:09:10;11.68;;;7.05;;
74799;SDS011;63326;45.088;7.658;2023-12-20T07:11:37;11.73;;;8.75;;
74799;SDS011;63326;45.088;7.658;2023-12-20T07:14:03;14.93;;;7.40;;
74799;SDS011;63326;45.088;7.658;2023-12-20T07:16:30;14.52;;;7.22;;
74799;SDS011;63326;45.088;7.658;2023-12-20T07:18:56;13.02;;;7.07;;
74799;SDS011;63326;45.088;7.658;2023-12-20T07:21:23;14.85;;;7.38;;
74799;SDS011;63326;45.088;7.658;2023-12-20T07:23:50;12.50;;;6.30;;
74799;SDS011;63326;45.088;7.658;2023-12-20T07:26:17;13.02;;;9.48;;
74799;SDS011;63326;45.088;7.658;2023-12-20T07:28:43;11.15;;;5.85;;
74799;SDS011;63326;45.088;7.658;2023-12-20T07:31:10;12.38;;;7.70;;
74799;SDS011;63326;45.088;7.658;2023-12-20T07:33:37;18.20;;;7.43;;
74799;SDS011;63326;45.088;7.658;2023-12-20T07:36:05;9.07;;;6.35;;
74799;SDS011;63326;45.088;7.658;2023-12-20T07:38:32;9.88;;;7.45;;
74799;SDS011;63326;45.088;7.658;2023-12-20T07:40:59;12.48;;;6.78;;
74799;SDS011;63326;45.088;7.658;2023-12-20T07:43:25;13.82;;;8.27;;
74799;SDS011;63326;45.088;7.658;2023-12-20T07:45:52;9.45;;;6.15;;
74799;SDS011;63326;45.088;7.658;2023-12-20T07:48:19;11.82;;;7.28;;
74799;SDS011;63326;45.088;7.658;2023-12-20T07:50:45;13.45;;;7.90;;
74799;SDS011;63326;45.088;7.658;2023-12-20T07:53:12;13.25;;;8.57;;
74799;SDS011;63326;45.088;7.658;2023-12-20T07:55:39;12.38;;;7.10;;
74799;SDS011;63326;45.088;7.658;2023-12-20T07:58:05;16.30;;;7.05;;
74799;SDS011;63326;45.088;7.658;2023-12-20T08:00:32;27.23;;;11.48;;
74799;SDS011;63326;45.088;7.658;2023-12-20T08:02:59;14.23;;;9.73;;
74799;SDS011;63326;45.088;7.658;2023-12-20T08:05:26;12.43;;;7.72;;
74799;SDS011;63326;45.088;7.658;2023-12-20T08:07:52;14.25;;;8.90;;
74799;SDS011;63326;45.088;7.658;2023-12-20T08:10:20;16.13;;;8.95;;
74799;SDS011;63326;45.088;7.658;2023-12-20T08:12:47;12.93;;;8.25;;
74799;SDS011;63326;45.088;7.658;2023-12-20T08:15:13;10.35;;;8.10;;
74799;SDS011;63326;45.088;7.658;2023-12-20T08:17:40;13.52;;;8.10;;
74799;SDS011;63326;45.088;7.658;2023-12-20T08:20:07;13.13;;;7.35;;
74799;SDS011;63326;45.088;7.658;2023-12-20T08:22:34;12.88;;;6.90;;
74799;SDS011;63326;45.088;7.658;2023-12-20T08:25:01;16.00;;;9.48;;
74799;SDS011;63326;45.088;7.658;2023-12-20T08:27:28;15.73;;;8.55;;
74799;SDS011;63326;45.088;7.658;2023-12-20T08:29:54;13.77;;;8.55;;
74799;SDS011;63326;45.088;7.658;2023-12-20T08:32:21;13.63;;;8.00;;
74799;SDS011;63326;45.088;7.658;2023-12-20T08:34:51;13.38;;;7.72;;
74799;SDS011;63326;45.088;7.658;2023-12-20T08:37:17;19.05;;;8.82;;
74799;SDS011;63326;45.088;7.658;2023-12-20T08:39:44;14.90;;;8.55;;
74799;SDS011;63326;45.088;7.658;2023-12-20T08:42:11;12.38;;;8.60;;
74799;SDS011;63326;45.088;7.658;2023-12-20T08:44:38;20.08;;;12.27;;
74799;SDS011;63326;45.088;7.658;2023-12-20T08:47:05;29.70;;;18.45;;
74799;SDS011;63326;45.088;7.658;2023-12-20T08:49:31;26.30;;;17.38;;
74799;SDS011;63326;45.088;7.658;2023-12-20T08:51:58;19.42;;;14.98;;
74799;SDS011;63326;45.088;7.658;2023-12-20T08:54:24;14.30;;;9.38;;
74799;SDS011;63326;45.088;7.658;2023-12-20T08:56:51;18.48;;;8.75;;
74799;SDS011;63326;45.088;7.658;2023-12-20T08:59:18;16.98;;;8.65;;
74799;SDS011;63326;45.088;7.658;2023-12-20T09:01:45;13.70;;;8.07;;
74799;SDS011;63326;45.088;7.658;2023-12-20T09:04:12;13.43;;;7.78;;
74799;SDS011;63326;45.088;7.658;2023-12-20T09:06:39;12.77;;;9.40;;
74799;SDS011;63326;45.088;7.658;2023-12-20T09:09:06;11.75;;;8.98;;
74799;SDS011;63326;45.088;7.658;2023-12-20T09:11:35;11.48;;;6.85;;
74799;SDS011;63326;45.088;7.658;2023-12-20T09:14:02;16.90;;;10.15;;
74799;SDS011;63326;45.088;7.658;2023-12-20T09:16:29;14.73;;;7.68;;
74799;SDS011;63326;45.088;7.658;2023-12-20T09:21:24;12.57;;;7.55;;
74799;SDS011;63326;45.088;7.658;2023-12-20T09:23:51;13.20;;;7.72;;
74799;SDS011;63326;45.088;7.658;2023-12-20T09:26:18;13.10;;;6.57;;
74799;SDS011;63326;45.088;7.658;2023-12-20T09:28:45;19.25;;;9.18;;
74799;SDS011;63326;45.088;7.658;2023-12-20T09:31:11;17.42;;;10.65;;
74799;SDS011;63326;45.088;7.658;2023-12-20T09:33:38;17.17;;;9.45;;
74799;SDS011;63326;45.088;7.658;2023-12-20T09:36:05;12.98;;;8.75;;
74799;SDS011;63326;45.088;7.658;2023-12-20T09:38:32;17.55;;;8.60;;
74799;SDS011;63326;45.088;7.658;2023-12-20T09:40:59;11.95;;;9.00;;
74799;SDS011;63326;45.088;7.658;2023-12-20T09:43:27;17.08;;;9.85;;
74799;SDS011;63326;45.088;7.658;2023-12-20T09:45:56;14.25;;;9.05;;
74799;SDS011;63326;45.088;7.658;2023-12-20T09:48:29;15.55;;;10.65;;
74799;SDS011;63326;45.088;7.658;2023-12-20T09:50:57;15.45;;;9.50;;
74799;SDS011;63326;45.088;7.658;2023-12-20T09:53:24;19.40;;;10.27;;
74799;SDS011;63326;45.088;7.658;2023-12-20T09:55:58;16.58;;;10.60;;
74799;SDS011;63326;45.088;7.658;2023-12-20T09:58:28;27.88;;;10.70;;
74799;SDS011;63326;45.088;7.658;2023-12-20T10:00:55;20.48;;;10.05;;
74799;SDS011;63326;45.088;7.658;2023-12-20T10:03:24;17.55;;;9.98;;
74799;SDS011;63326;45.088;7.658;2023-12-20T10:05:54;16.77;;;9.88;;
74799;SDS011;63326;45.088;7.658;2023-12-20T10:08:23;20.35;;;10.75;;
74799;SDS011;63326;45.088;7.658;2023-12-20T10:10:50;27.17;;;10.10;;
74799;SDS011;63326;45.088;7.658;2023-12-20T10:13:17;15.27;;;8.98;;
74799;SDS011;63326;45.088;7.658;2023-12-20T10:15:44;17.50;;;10.40;;
74799;SDS011;63326;45.088;7.658;2023-12-20T10:18:11;19.17;;;10.43;;
74799;SDS011;63326;45.088;7.658;2023-12-20T10:20:40;19.48;;;12.10;;
74799;SDS011;63326;45.088;7.658;2023-12-20T10:23:08;16.70;;;11.10;;
74799;SDS011;63326;45.088;7.658;2023-12-20T10:25:35;19.50;;;10.10;;
74799;SDS011;63326;45.088;7.658;2023-12-20T10:28:11;20.23;;;12.45;;
74799;SDS011;63326;45.088;7.658;2023-12-20T10:30:47;16.38;;;10.30;;
74799;SDS011;63326;45.088;7.658;2023-12-20T10:33:22;13.15;;;9.98;;
74799;SDS011;63326;45.088;7.658;2023-12-20T10:35:50;18.90;;;11.70;;
74799;SDS011;63326;45.088;7.658;2023-12-20T10:38:16;16.17;;;10.40;;
74799;SDS011;63326;45.088;7.658;2023-12-20T10:40:45;19.42;;;11.90;;
74799;SDS011;63326;45.088;7.658;2023-12-20T10:43:12;20.77;;;12.90;;
74799;SDS011;63326;45.088;7.658;2023-12-20T10:45:40;19.90;;;10.82;;
74799;SDS011;63326;45.088;7.658;2023-12-20T10:48:10;27.70;;;12.13;;
74799;SDS011;63326;45.088;7.658;2023-12-20T10:50:40;17.17;;;11.35;;
74799;SDS011;63326;45.088;7.658;2023-12-20T10:53:07;20.50;;;12.15;;
74799;SDS011;63326;45.088;7.658;2023-12-20T10:55:34;22.30;;;12.20;;
74799;SDS011;63326;45.088;7.658;2023-12-20T10:58:01;16.17;;;10.98;;
74799;SDS011;63326;45.088;7.658;2023-12-20T11:00:32;18.38;;;11.45;;
74799;SDS011;63326;45.088;7.658;2023-12-20T11:03:10;17.92;;;11.80;;
74799;SDS011;63326;45.088;7.658;2023-12-20T11:16:37;22.50;;;12.52;;
74799;SDS011;63326;45.088;7.658;2023-12-20T11:19:17;20.80;;;14.45;;
74799;SDS011;63326;45.088;7.658;2023-12-20T11:21:45;22.30;;;13.10;;
74799;SDS011;63326;45.088;7.658;2023-12-20T11:24:12;22.80;;;15.13;;
74799;SDS011;63326;45.088;7.658;2023-12-20T11:26:39;22.80;;;14.60;;
74799;SDS011;63326;45.088;7.658;2023-12-20T11:32:03;19.45;;;10.55;;
74799;SDS011;63326;45.088;7.658;2023-12-20T11:34:50;19.98;;;12.75;;
74799;SDS011;63326;45.088;7.658;2023-12-20T11:39:45;18.88;;;12.20;;
74799;SDS011;63326;45.088;7.658;2023-12-20T11:42:21;22.58;;;13.32;;
74799;SDS011;63326;45.088;7.658;2023-12-20T11:44:47;20.73;;;13.32;;
74799;SDS011;63326;45.088;7.658;2023-12-20T11:47:14;19.45;;;13.98;;
74799;SDS011;63326;45.088;7.658;2023-12-20T11:49:42;20.35;;;12.75;;
74799;SDS011;63326;45.088;7.658;2023-12-20T11:52:08;26.42;;;11.75;;
74799;SDS011;63326;45.088;7.658;2023-12-20T11:54:35;21.50;;;13.95;;
74799;SDS011;63326;45.088;7.658;2023-12-20T11:57:02;22.45;;;14.07;;
74799;SDS011;63326;45.088;7.658;2023-12-20T11:59:28;22.85;;;13.60;;
74799;SDS011;63326;45.088;7.658;2023-12-20T12:01:55;21.73;;;12.55;;
74799;SDS011;63326;45.088;7.658;2023-12-20T12:04:27;24.40;;;13.50;;
74799;SDS011;63326;45.088;7.658;2023-12-20T12:06:54;23.52;;;14.25;;
74799;SDS011;63326;45.088;7.658;2023-12-20T12:09:21;23.65;;;14.27;;
74799;SDS011;63326;45.088;7.658;2023-12-20T12:11:48;26.13;;;14.90;;
74799;SDS011;63326;45.088;7.658;2023-12-20T12:14:15;22.52;;;13.68;;
74799;SDS011;63326;45.088;7.658;2023-12-20T12:16:41;25.25;;;14.23;;
74799;SDS011;63326;45.088;7.658;2023-12-20T12:21:46;22.95;;;12.95;;
74799;SDS011;63326;45.088;7.658;2023-12-20T12:24:12;23.58;;;11.27;;
74799;SDS011;63326;45.088;7.658;2023-12-20T12:26:39;20.42;;;13.82;;
74799;SDS011;63326;45.088;7.658;2023-12-20T12:29:09;23.73;;;14.77;;
74799;SDS011;63326;45.088;7.658;2023-12-20T12:31:36;17.30;;;13.48;;
74799;SDS011;63326;45.088;7.658;2023-12-20T12:34:03;21.10;;;13.60;;
74799;SDS011;63326;45.088;7.658;2023-12-20T12:36:30;19.40;;;10.43;;
74799;SDS011;63326;45.088;7.658;2023-12-20T12:38:57;18.48;;;10.63;;
74799;SDS011;63326;45.088;7.658;2023-12-20T12:43:51;18.52;;;11.52;;
74799;SDS011;63326;45.088;7.658;2023-12-20T12:46:17;17.70;;;10.55;;
74799;SDS011;63326;45.088;7.658;2023-12-20T12:48:44;18.65;;;11.02;;
74799;SDS011;63326;45.088;7.658;2023-12-20T12:51:12;16.85;;;11.82;;
74799;SDS011;63326;45.088;7.658;2023-12-20T12:53:40;24.25;;;11.18;;
74799;SDS011;63326;45.088;7.658;2023-12-20T12:56:07;20.58;;;11.20;;
74799;SDS011;63326;45.088;7.658;2023-12-20T12:58:34;17.02;;;10.40;;
74799;SDS011;63326;45.088;7.658;2023-12-20T13:01:01;21.67;;;12.20;;
74799;SDS011;63326;45.088;7.658;2023-12-20T13:03:28;20.83;;;11.77;;
74799;SDS011;63326;45.088;7.658;2023-12-20T13:05:54;18.52;;;11.85;;
74799;SDS011;63326;45.088;7.658;2023-12-20T13:08:21;14.88;;;11.00;;
74799;SDS011;63326;45.088;7.658;2023-12-20T13:10:48;15.48;;;10.60;;
74799;SDS011;63326;45.088;7.658;2023-12-20T13:13:15;19.85;;;11.38;;
74799;SDS011;63326;45.088;7.658;2023-12-20T13:15:43;16.23;;;10.07;;
74799;SDS011;63326;45.088;7.658;2023-12-20T13:18:17;23.50;;;12.35;;
74799;SDS011;63326;45.088;7.658;2023-12-20T13:20:47;18.52;;;10.77;;
74799;SDS011;63326;45.088;7.658;2023-12-20T13:23:14;21.27;;;13.07;;
74799;SDS011;63326;45.088;7.658;2023-12-20T13:25:43;18.15;;;11.02;;
74799;SDS011;63326;45.088;7.658;2023-12-20T13:28:12;17.20;;;10.77;;
74799;SDS011;63326;45.088;7.658;2023-12-20T13:30:39;19.52;;;11.13;;
74799;SDS011;63326;45.088;7.658;2023-12-20T13:33:06;16.20;;;10.75;;
74799;SDS011;63326;45.088;7.658;2023-12-20T13:35:33;19.15;;;10.77;;
74799;SDS011;63326;45.088;7.658;2023-12-20T13:38:01;17.42;;;11.27;;
74799;SDS011;63326;45.088;7.658;2023-12-20T13:40:28;19.80;;;11.48;;
74799;SDS011;63326;45.088;7.658;2023-12-20T13:42:55;17.88;;;10.50;;
74799;SDS011;63326;45.088;7.658;2023-12-20T13:45:22;19.20;;;9.82;;
74799;SDS011;63326;45.088;7.658;2023-12-20T13:47:48;20.08;;;12.65;;
74799;SDS011;63326;45.088;7.658;2023-12-20T13:50:16;19.02;;;11.68;;
74799;SDS011;63326;45.088;7.658;2023-12-20T13:52:43;18.13;;;10.63;;
74799;SDS011;63326;45.088;7.658;2023-12-20T13:55:09;19.23;;;10.70;;
74799;SDS011;63326;45.088;7.658;2023-12-20T13:57:36;21.20;;;12.75;;
74799;SDS011;63326;45.088;7.658;2023-12-20T14:00:21;18.65;;;11.32;;
74799;SDS011;63326;45.088;7.658;2023-12-20T14:02:48;16.85;;;11.70;;
74799;SDS011;63326;45.088;7.658;2023-12-20T14:07:44;16.73;;;9.27;;
74799;SDS011;63326;45.088;7.658;2023-12-20T14:10:12;20.38;;;12.25;;
74799;SDS011;63326;45.088;7.658;2023-12-20T14:12:40;17.60;;;13.07;;
74799;SDS011;63326;45.088;7.658;2023-12-20T14:15:07;19.35;;;11.65;;
74799;SDS011;63326;45.088;7.658;2023-12-20T14:17:40;22.13;;;11.65;;
74799;SDS011;63326;45.088;7.658;2023-12-20T14:20:09;23.48;;;14.40;;
74799;SDS011;63326;45.088;7.658;2023-12-20T14:22:36;18.77;;;11.68;;
74799;SDS011;63326;45.088;7.658;2023-12-20T14:25:05;23.58;;;12.10;;
74799;SDS011;63326;45.088;7.658;2023-12-20T14:27:32;20.00;;;13.68;;
74799;SDS011;63326;45.088;7.658;2023-12-20T14:30:02;19.35;;;12.48;;
74799;SDS011;63326;45.088;7.658;2023-12-20T14:32:29;21.48;;;12.73;;
74799;SDS011;63326;45.088;7.658;2023-12-20T14:34:57;18.83;;;11.40;;
74799;SDS011;63326;45.088;7.658;2023-12-20T14:37:24;18.88;;;11.43;;
74799;SDS011;63326;45.088;7.658;2023-12-20T14:39:51;17.77;;;10.98;;
74799;SDS011;63326;45.088;7.658;2023-12-20T14:42:18;25.17;;;11.32;;
74799;SDS011;63326;45.088;7.658;2023-12-20T14:44:44;22.58;;;12.88;;
74799;SDS011;63326;45.088;7.658;2023-12-20T14:47:11;15.73;;;11.32;;
74799;SDS011;63326;45.088;7.658;2023-12-20T14:49:38;17.73;;;11.68;;
74799;SDS011;63326;45.088;7.658;2023-12-20T14:52:05;21.60;;;13.50;;
74799;SDS011;63326;45.088;7.658;2023-12-20T14:54:32;19.77;;;12.27;;
74799;SDS011;63326;45.088;7.658;2023-12-20T14:56:59;20.65;;;12.25;;
74799;SDS011;63326;45.088;7.658;2023-12-20T14:59:31;20.08;;;12.75;;
74799;SDS011;63326;45.088;7.658;2023-12-20T15:01:58;18.60;;;11.60;;
74799;SDS011;63326;45.088;7.658;2023-12-20T15:04:25;24.30;;;12.30;;